sensor_id;sensor_type;location;lat;lon;timestamp;pressure;altitude;pressure_sealevel;temperature;humidity
19672;BME280;9983;51.114;13.788;2023-07-24T00:01:23;98603.69;;;22.25;69.69
19672;BME280;9983;51.114;13.788;2023-07-24T00:06:23;98598.78;;;22.17;69.92
19672;BME280;9983;51.114;13.788;2023-07-24T00:11:23;98598.50;;;22.13;69.50
19672;BME280;9983;51.114;13.788;2023-07-24T00:16:23;98593.28;;;22.07;70.77
19672;BME280;9983;51.114;13.788;2023-07-24T00:21:24;98586.09;;;21.85;71.39
19672;BME280;9983;51.114;13.788;2023-07-24T00:26:24;98589.38;;;21.67;71.98
19672;BME280;9983;51.114;13.788;2023-07-24T00:31:24;98581.97;;;21.63;71.54
19672;BME280;9983;51.114;13.788;2023-07-24T00:36:24;98570.28;;;21.72;71.52
19672;BME280;9983;51.114;13.788;2023-07-24T00:41:25;98564.22;;;21.55;73.53
19672;BME280;9983;51.114;13.788;2023-07-24T00:46:25;98557.94;;;21.54;72.78
19672;BME280;9983;51.114;13.788;2023-07-24T00:51:26;98557.59;;;21.31;74.36
19672;BME280;9983;51.114;13.788;2023-07-24T00:56:28;98559.66;;;21.08;75.81
19672;BME280;9983;51.114;13.788;2023-07-24T01:01:29;98560.81;;;21.23;74.67
19672;BME280;9983;51.114;13.788;2023-07-24T01:06:29;98557.06;;;21.44;73.76
19672;BME280;9983;51.114;13.788;2023-07-24T01:11:37;98558.09;;;21.28;75.20
19672;BME280;9983;51.114;13.788;2023-07-24T01:16:42;98564.09;;;21.25;74.98
19672;BME280;9983;51.114;13.788;2023-07-24T01:22:02;98552.75;;;21.01;77.16
19672;BME280;9983;51.114;13.788;2023-07-24T01:27:07;98554.63;;;20.90;76.74
19672;BME280;9983;51.114;13.788;2023-07-24T01:32:07;98552.94;;;20.84;77.20
19672;BME280;9983;51.114;13.788;2023-07-24T01:37:09;98538.03;;;20.92;77.46
19672;BME280;9983;51.114;13.788;2023-07-24T01:42:11;98535.97;;;20.67;79.16
19672;BME280;9983;51.114;13.788;2023-07-24T01:47:13;98533.34;;;20.82;78.21
19672;BME280;9983;51.114;13.788;2023-07-24T01:52:13;98535.84;;;20.52;78.88
19672;BME280;9983;51.114;13.788;2023-07-24T01:57:13;98522.44;;;20.82;75.77
19672;BME280;9983;51.114;13.788;2023-07-24T02:02:14;98517.38;;;20.59;78.79
19672;BME280;9983;51.114;13.788;2023-07-24T02:07:14;98511.94;;;20.59;79.58
19672;BME280;9983;51.114;13.788;2023-07-24T02:12:14;98509.84;;;20.76;78.05
19672;BME280;9983;51.114;13.788;2023-07-24T02:17:15;98510.06;;;20.27;78.79
19672;BME280;9983;51.114;13.788;2023-07-24T02:22:16;98528.22;;;20.49;78.19
19672;BME280;9983;51.114;13.788;2023-07-24T02:27:27;98524.53;;;20.33;80.39
19672;BME280;9983;51.114;13.788;2023-07-24T02:32:28;98525.00;;;19.93;81.88
19672;BME280;9983;51.114;13.788;2023-07-24T02:37:28;98518.78;;;20.29;79.01
19672;BME280;9983;51.114;13.788;2023-07-24T02:42:28;98521.63;;;20.07;82.15
19672;BME280;9983;51.114;13.788;2023-07-24T02:47:29;98515.38;;;20.44;78.19
19672;BME280;9983;51.114;13.788;2023-07-24T02:52:29;98528.75;;;19.87;82.67
19672;BME280;9983;51.114;13.788;2023-07-24T02:57:29;98506.72;;;20.15;80.65
19672;BME280;9983;51.114;13.788;2023-07-24T03:02:29;98513.19;;;20.09;81.58
19672;BME280;9983;51.114;13.788;2023-07-24T03:07:30;98512.44;;;20.19;80.08
19672;BME280;9983;51.114;13.788;2023-07-24T03:12:30;98520.00;;;20.43;79.51
19672;BME280;9983;51.114;13.788;2023-07-24T03:17:30;98520.00;;;20.43;78.18
19672;BME280;9983;51.114;13.788;2023-07-24T03:22:31;98518.66;;;20.46;80.54
19672;BME280;9983;51.114;13.788;2023-07-24T03:27:31;98499.94;;;20.55;79.41
19672;BME280;9983;51.114;13.788;2023-07-24T03:32:31;98519.09;;;20.33;81.20
19672;BME280;9983;51.114;13.788;2023-07-24T03:37:33;98510.75;;;20.44;80.19
19672;BME280;9983;51.114;13.788;2023-07-24T03:42:34;98508.56;;;20.83;78.83
19672;BME280;9983;51.114;13.788;2023-07-24T03:47:34;98502.50;;;20.71;79.43
19672;BME280;9983;51.114;13.788;2023-07-24T03:52:34;98492.41;;;20.72;78.64
19672;BME280;9983;51.114;13.788;2023-07-24T03:57:34;98492.75;;;20.86;79.79
19672;BME280;9983;51.114;13.788;2023-07-24T04:02:35;98479.94;;;20.86;79.66
19672;BME280;9983;51.114;13.788;2023-07-24T04:07:35;98464.69;;;20.80;80.80
19672;BME280;9983;51.114;13.788;2023-07-24T04:12:37;98453.88;;;21.00;79.17
19672;BME280;9983;51.114;13.788;2023-07-24T04:17:37;98454.22;;;21.19;76.60
19672;BME280;9983;51.114;13.788;2023-07-24T04:22:38;98456.66;;;21.15;76.38
19672;BME280;9983;51.114;13.788;2023-07-24T04:27:39;98451.72;;;21.12;76.46
19672;BME280;9983;51.114;13.788;2023-07-24T04:32:40;98454.03;;;21.46;76.15
19672;BME280;9983;51.114;13.788;2023-07-24T04:37:40;98451.84;;;21.53;76.66
19672;BME280;9983;51.114;13.788;2023-07-24T04:42:40;98446.94;;;21.50;77.29
19672;BME280;9983;51.114;13.788;2023-07-24T04:47:41;98456.25;;;21.79;74.54
19672;BME280;9983;51.114;13.788;2023-07-24T04:52:42;98452.41;;;21.60;75.55
19672;BME280;9983;51.114;13.788;2023-07-24T04:57:42;98446.44;;;21.83;75.39
19672;BME280;9983;51.114;13.788;2023-07-24T05:02:42;98438.78;;;21.95;76.13
19672;BME280;9983;51.114;13.788;2023-07-24T05:07:42;98435.25;;;21.90;75.83
19672;BME280;9983;51.114;13.788;2023-07-24T05:12:43;98439.34;;;22.13;73.77
19672;BME280;9983;51.114;13.788;2023-07-24T05:17:43;98429.78;;;22.30;76.12
19672;BME280;9983;51.114;13.788;2023-07-24T05:22:44;98423.47;;;22.40;71.64
19672;BME280;9983;51.114;13.788;2023-07-24T05:27:44;98414.63;;;22.79;70.10
19672;BME280;9983;51.114;13.788;2023-07-24T05:32:45;98416.22;;;22.90;70.96
19672;BME280;9983;51.114;13.788;2023-07-24T05:37:45;98426.81;;;23.06;66.14
19672;BME280;9983;51.114;13.788;2023-07-24T05:42:45;98431.47;;;23.01;70.16
19672;BME280;9983;51.114;13.788;2023-07-24T05:47:47;98426.44;;;23.23;63.79
19672;BME280;9983;51.114;13.788;2023-07-24T05:52:47;98416.72;;;23.51;61.28
19672;BME280;9983;51.114;13.788;2023-07-24T05:57:47;98418.47;;;23.76;58.99
19672;BME280;9983;51.114;13.788;2023-07-24T06:02:47;98419.97;;;23.87;60.36
19672;BME280;9983;51.114;13.788;2023-07-24T06:07:48;98417.63;;;24.09;57.87
19672;BME280;9983;51.114;13.788;2023-07-24T06:12:48;98414.75;;;24.25;57.75
19672;BME280;9983;51.114;13.788;2023-07-24T06:17:49;98410.78;;;24.36;57.13
19672;BME280;9983;51.114;13.788;2023-07-24T06:22:49;98416.88;;;24.33;57.24
19672;BME280;9983;51.114;13.788;2023-07-24T06:27:49;98412.47;;;24.32;57.79
19672;BME280;9983;51.114;13.788;2023-07-24T06:32:49;98413.03;;;24.34;59.89
19672;BME280;9983;51.114;13.788;2023-07-24T06:37:50;98420.00;;;24.45;55.95
19672;BME280;9983;51.114;13.788;2023-07-24T06:42:50;98411.03;;;24.63;56.19
19672;BME280;9983;51.114;13.788;2023-07-24T06:47:50;98424.56;;;24.78;55.83
19672;BME280;9983;51.114;13.788;2023-07-24T06:52:51;98422.69;;;24.98;55.84
19672;BME280;9983;51.114;13.788;2023-07-24T06:57:53;98411.91;;;25.25;53.92
19672;BME280;9983;51.114;13.788;2023-07-24T07:02:54;98411.09;;;25.06;51.64
19672;BME280;9983;51.114;13.788;2023-07-24T07:07:54;98405.06;;;25.04;50.44
19672;BME280;9983;51.114;13.788;2023-07-24T07:12:54;98410.38;;;25.19;48.87
19672;BME280;9983;51.114;13.788;2023-07-24T07:17:55;98404.19;;;25.83;47.91
19672;BME280;9983;51.114;13.788;2023-07-24T07:22:55;98394.06;;;26.43;46.73
19672;BME280;9983;51.114;13.788;2023-07-24T07:27:55;98393.66;;;26.64;46.10
19672;BME280;9983;51.114;13.788;2023-07-24T07:32:55;98406.28;;;27.06;46.18
19672;BME280;9983;51.114;13.788;2023-07-24T07:37:56;98391.78;;;27.14;45.49
19672;BME280;9983;51.114;13.788;2023-07-24T07:42:57;98388.78;;;27.38;43.71
19672;BME280;9983;51.114;13.788;2023-07-24T07:47:58;98378.09;;;27.36;43.58
19672;BME280;9983;51.114;13.788;2023-07-24T07:52:58;98381.72;;;27.59;45.43
19672;BME280;9983;51.114;13.788;2023-07-24T07:57:59;98377.00;;;27.60;43.28
19672;BME280;9983;51.114;13.788;2023-07-24T08:02:59;98343.97;;;27.60;43.81
19672;BME280;9983;51.114;13.788;2023-07-24T08:07:59;98350.13;;;27.87;42.53
19672;BME280;9983;51.114;13.788;2023-07-24T08:12:59;98346.53;;;27.78;41.77
19672;BME280;9983;51.114;13.788;2023-07-24T08:18:00;98344.06;;;27.32;41.00
19672;BME280;9983;51.114;13.788;2023-07-24T08:23:00;98337.13;;;27.79;40.42
19672;BME280;9983;51.114;13.788;2023-07-24T08:28:00;98337.97;;;28.11;39.71
19672;BME280;9983;51.114;13.788;2023-07-24T08:33:00;98332.44;;;27.35;39.78
19672;BME280;9983;51.114;13.788;2023-07-24T08:38:01;98319.91;;;28.27;39.51
19672;BME280;9983;51.114;13.788;2023-07-24T08:43:01;98305.19;;;28.01;39.00
19672;BME280;9983;51.114;13.788;2023-07-24T08:48:02;98307.78;;;28.37;38.44
19672;BME280;9983;51.114;13.788;2023-07-24T08:53:02;98301.75;;;28.26;38.12
19672;BME280;9983;51.114;13.788;2023-07-24T08:58:02;98290.72;;;29.34;37.40
19672;BME280;9983;51.114;13.788;2023-07-24T09:03:06;98291.25;;;29.54;37.56
19672;BME280;9983;51.114;13.788;2023-07-24T09:08:06;98282.63;;;30.10;36.61
19672;BME280;9983;51.114;13.788;2023-07-24T09:13:07;98291.25;;;29.19;37.03
19672;BME280;9983;51.114;13.788;2023-07-24T09:18:07;98295.66;;;30.39;36.26
19672;BME280;9983;51.114;13.788;2023-07-24T09:23:09;98292.81;;;30.27;36.17
19672;BME280;9983;51.114;13.788;2023-07-24T09:28:13;98284.50;;;30.65;34.93
19672;BME280;9983;51.114;13.788;2023-07-24T09:33:14;98279.97;;;30.81;35.08
19672;BME280;9983;51.114;13.788;2023-07-24T09:38:14;98279.19;;;31.22;34.24
19672;BME280;9983;51.114;13.788;2023-07-24T09:48:18;98286.03;;;31.25;35.48
19672;BME280;9983;51.114;13.788;2023-07-24T09:53:33;98275.25;;;30.61;35.81
19672;BME280;9983;51.114;13.788;2023-07-24T09:58:38;98283.63;;;30.73;36.10
19672;BME280;9983;51.114;13.788;2023-07-24T10:03:44;98279.53;;;29.22;38.20
19672;BME280;9983;51.114;13.788;2023-07-24T10:08:45;98272.41;;;29.04;38.70
19672;BME280;9983;51.114;13.788;2023-07-24T10:13:46;98275.31;;;29.33;38.80
19672;BME280;9983;51.114;13.788;2023-07-24T10:18:46;98264.78;;;29.35;38.85
19672;BME280;9983;51.114;13.788;2023-07-24T10:23:47;98265.88;;;29.52;38.83
19672;BME280;9983;51.114;13.788;2023-07-24T10:28:47;98252.16;;;29.81;38.10
19672;BME280;9983;51.114;13.788;2023-07-24T10:33:49;98252.91;;;29.43;39.10
19672;BME280;9983;51.114;13.788;2023-07-24T10:38:54;98256.78;;;29.34;39.51
19672;BME280;9983;51.114;13.788;2023-07-24T10:43:59;98268.97;;;28.90;39.96
19672;BME280;9983;51.114;13.788;2023-07-24T10:49:00;98282.47;;;29.00;43.67
19672;BME280;9983;51.114;13.788;2023-07-24T10:54:05;98276.69;;;28.14;49.92
19672;BME280;9983;51.114;13.788;2023-07-24T10:59:06;98273.16;;;27.82;48.78
19672;BME280;9983;51.114;13.788;2023-07-24T11:04:06;98286.06;;;27.29;51.68
19672;BME280;9983;51.114;13.788;2023-07-24T11:09:07;98273.13;;;27.74;50.43
19672;BME280;9983;51.114;13.788;2023-07-24T11:14:13;98253.03;;;28.69;49.70
19672;BME280;9983;51.114;13.788;2023-07-24T11:19:22;98247.34;;;29.69;46.14
19672;BME280;9983;51.114;13.788;2023-07-24T11:24:22;98234.69;;;30.06;45.06
19672;BME280;9983;51.114;13.788;2023-07-24T11:29:23;98218.41;;;30.43;44.23
19672;BME280;9983;51.114;13.788;2023-07-24T11:34:24;98218.97;;;30.57;42.48
19672;BME280;9983;51.114;13.788;2023-07-24T11:39:24;98221.50;;;30.71;43.23
19672;BME280;9983;51.114;13.788;2023-07-24T11:44:29;98207.84;;;29.69;44.10
19672;BME280;9983;51.114;13.788;2023-07-24T11:49:30;98205.81;;;29.95;44.40
19672;BME280;9983;51.114;13.788;2023-07-24T11:54:34;98204.00;;;29.99;43.12
19672;BME280;9983;51.114;13.788;2023-07-24T11:59:38;98196.00;;;30.06;43.23
19672;BME280;9983;51.114;13.788;2023-07-24T12:04:39;98208.00;;;30.40;42.63
19672;BME280;9983;51.114;13.788;2023-07-24T12:09:39;98212.09;;;30.63;42.65
19672;BME280;9983;51.114;13.788;2023-07-24T12:14:40;98199.22;;;30.67;42.14
19672;BME280;9983;51.114;13.788;2023-07-24T12:19:40;98183.00;;;30.57;42.95
19672;BME280;9983;51.114;13.788;2023-07-24T12:24:40;98185.78;;;30.57;42.44
19672;BME280;9983;51.114;13.788;2023-07-24T12:29:41;98183.69;;;30.25;43.31
19672;BME280;9983;51.114;13.788;2023-07-24T12:34:41;98176.06;;;29.92;44.21
19672;BME280;9983;51.114;13.788;2023-07-24T12:39:41;98179.00;;;29.87;44.39
19672;BME280;9983;51.114;13.788;2023-07-24T12:44:42;98172.38;;;29.24;46.77
19672;BME280;9983;51.114;13.788;2023-07-24T12:49:42;98176.16;;;29.02;48.03
19672;BME280;9983;51.114;13.788;2023-07-24T12:54:43;98244.94;;;26.88;50.94
19672;BME280;9983;51.114;13.788;2023-07-24T12:59:43;98231.03;;;25.47;56.70
19672;BME280;9983;51.114;13.788;2023-07-24T13:04:43;98225.66;;;24.35;72.82
19672;BME280;9983;51.114;13.788;2023-07-24T13:09:44;98219.03;;;23.35;85.24
19672;BME280;9983;51.114;13.788;2023-07-24T13:14:44;98203.94;;;23.96;88.17
19672;BME280;9983;51.114;13.788;2023-07-24T13:19:44;98207.16;;;24.27;93.62
19672;BME280;9983;51.114;13.788;2023-07-24T13:24:44;98190.19;;;24.25;100.00
19672;BME280;9983;51.114;13.788;2023-07-24T13:29:45;98185.38;;;24.73;98.28
19672;BME280;9983;51.114;13.788;2023-07-24T13:34:45;98160.94;;;24.57;100.00
19672;BME280;9983;51.114;13.788;2023-07-24T13:39:47;98158.28;;;25.04;99.62
19672;BME280;9983;51.114;13.788;2023-07-24T13:44:47;98143.72;;;25.22;96.67
19672;BME280;9983;51.114;13.788;2023-07-24T13:49:48;98135.19;;;25.37;96.04
19672;BME280;9983;51.114;13.788;2023-07-24T13:54:48;98116.09;;;25.46;92.26
19672;BME280;9983;51.114;13.788;2023-07-24T13:59:48;98089.63;;;26.04;88.62
19672;BME280;9983;51.114;13.788;2023-07-24T14:04:48;98078.81;;;25.86;90.71
19672;BME280;9983;51.114;13.788;2023-07-24T14:09:49;98072.56;;;26.43;87.54
19672;BME280;9983;51.114;13.788;2023-07-24T14:14:49;98056.09;;;27.28;81.68
19672;BME280;9983;51.114;13.788;2023-07-24T14:19:49;98053.66;;;27.74;76.58
19672;BME280;9983;51.114;13.788;2023-07-24T14:24:49;98045.66;;;29.49;66.83
19672;BME280;9983;51.114;13.788;2023-07-24T14:29:50;98027.31;;;29.06;67.56
19672;BME280;9983;51.114;13.788;2023-07-24T14:34:51;98017.00;;;30.45;60.48
19672;BME280;9983;51.114;13.788;2023-07-24T14:39:51;98019.13;;;30.06;62.56
19672;BME280;9983;51.114;13.788;2023-07-24T14:44:52;98004.06;;;28.78;59.06
19672;BME280;9983;51.114;13.788;2023-07-24T14:49:52;98007.13;;;28.76;59.83
19672;BME280;9983;51.114;13.788;2023-07-24T14:54:52;97986.94;;;27.94;58.76
19672;BME280;9983;51.114;13.788;2023-07-24T14:59:52;97944.00;;;28.75;56.34
19672;BME280;9983;51.114;13.788;2023-07-24T15:04:53;97942.97;;;28.41;55.47
19672;BME280;9983;51.114;13.788;2023-07-24T15:09:53;97936.09;;;28.56;54.49
19672;BME280;9983;51.114;13.788;2023-07-24T15:14:54;97957.03;;;29.83;52.29
19672;BME280;9983;51.114;13.788;2023-07-24T15:19:54;97952.75;;;29.53;50.22
19672;BME280;9983;51.114;13.788;2023-07-24T15:24:54;97957.47;;;29.14;50.58
19672;BME280;9983;51.114;13.788;2023-07-24T15:29:55;97933.19;;;29.37;51.28
19672;BME280;9983;51.114;13.788;2023-07-24T15:34:55;97943.78;;;29.26;52.27
19672;BME280;9983;51.114;13.788;2023-07-24T15:39:58;97958.53;;;29.01;51.28
19672;BME280;9983;51.114;13.788;2023-07-24T15:44:59;97938.25;;;29.26;51.12
19672;BME280;9983;51.114;13.788;2023-07-24T15:49:59;97942.81;;;29.22;52.45
19672;BME280;9983;51.114;13.788;2023-07-24T15:55:02;97930.56;;;29.11;51.90
19672;BME280;9983;51.114;13.788;2023-07-24T16:00:02;97925.84;;;28.74;52.01
19672;BME280;9983;51.114;13.788;2023-07-24T16:05:15;97914.00;;;30.36;49.38
19672;BME280;9983;51.114;13.788;2023-07-24T16:10:17;97893.66;;;32.18;45.09
19672;BME280;9983;51.114;13.788;2023-07-24T16:15:17;97889.28;;;32.32;42.21
19672;BME280;9983;51.114;13.788;2023-07-24T16:20:17;97884.97;;;33.45;39.83
19672;BME280;9983;51.114;13.788;2023-07-24T16:25:17;97890.09;;;33.62;38.28
19672;BME280;9983;51.114;13.788;2023-07-24T16:30:18;97893.47;;;33.71;38.39
19672;BME280;9983;51.114;13.788;2023-07-24T16:35:18;97901.81;;;31.71;40.92
19672;BME280;9983;51.114;13.788;2023-07-24T16:40:18;97894.69;;;31.45;43.21
19672;BME280;9983;51.114;13.788;2023-07-24T16:45:19;97906.84;;;30.35;44.89
19672;BME280;9983;51.114;13.788;2023-07-24T16:50:19;97906.88;;;29.10;43.00
19672;BME280;9983;51.114;13.788;2023-07-24T16:55:19;97873.09;;;29.96;42.18
19672;BME280;9983;51.114;13.788;2023-07-24T17:00:20;97891.13;;;28.73;42.57
19672;BME280;9983;51.114;13.788;2023-07-24T17:05:20;97892.69;;;28.91;42.24
19672;BME280;9983;51.114;13.788;2023-07-24T17:10:20;97892.03;;;28.94;42.20
19672;BME280;9983;51.114;13.788;2023-07-24T17:15:21;97878.41;;;29.18;42.26
19672;BME280;9983;51.114;13.788;2023-07-24T17:20:21;97872.03;;;28.97;43.86
19672;BME280;9983;51.114;13.788;2023-07-24T17:25:21;97871.78;;;28.43;43.61
19672;BME280;9983;51.114;13.788;2023-07-24T17:30:22;97871.56;;;28.19;43.66
19672;BME280;9983;51.114;13.788;2023-07-24T17:35:22;97867.91;;;28.44;44.11
19672;BME280;9983;51.114;13.788;2023-07-24T17:40:22;97862.97;;;28.58;43.64
19672;BME280;9983;51.114;13.788;2023-07-24T17:45:23;97853.72;;;28.08;44.29
19672;BME280;9983;51.114;13.788;2023-07-24T17:50:23;97860.59;;;28.40;44.61
19672;BME280;9983;51.114;13.788;2023-07-24T17:55:23;97845.47;;;28.16;45.86
19672;BME280;9983;51.114;13.788;2023-07-24T18:00:23;97836.28;;;27.35;47.96
19672;BME280;9983;51.114;13.788;2023-07-24T18:05:24;97832.75;;;27.60;47.99
19672;BME280;9983;51.114;13.788;2023-07-24T18:10:24;97857.63;;;27.38;48.81
19672;BME280;9983;51.114;13.788;2023-07-24T18:15:24;97867.69;;;27.34;49.18
19672;BME280;9983;51.114;13.788;2023-07-24T18:20:25;97870.06;;;27.01;49.83
19672;BME280;9983;51.114;13.788;2023-07-24T18:25:25;97873.81;;;27.13;49.84
19672;BME280;9983;51.114;13.788;2023-07-24T18:30:25;97876.38;;;27.01;48.94
19672;BME280;9983;51.114;13.788;2023-07-24T18:35:28;97894.84;;;27.09;48.18
19672;BME280;9983;51.114;13.788;2023-07-24T18:40:29;97896.50;;;26.79;49.45
19672;BME280;9983;51.114;13.788;2023-07-24T18:45:30;97899.50;;;27.00;48.44
19672;BME280;9983;51.114;13.788;2023-07-24T18:50:30;97891.25;;;27.00;48.65
19672;BME280;9983;51.114;13.788;2023-07-24T18:55:30;97897.59;;;26.70;49.66
19672;BME280;9983;51.114;13.788;2023-07-24T19:00:31;97936.91;;;26.39;50.94
19672;BME280;9983;51.114;13.788;2023-07-24T19:05:31;97971.41;;;25.51;52.67
19672;BME280;9983;51.114;13.788;2023-07-24T19:10:32;97993.19;;;25.07;55.02
19672;BME280;9983;51.114;13.788;2023-07-24T19:15:33;97992.66;;;24.45;58.96
19672;BME280;9983;51.114;13.788;2023-07-24T19:20:33;97996.13;;;23.99;62.18
19672;BME280;9983;51.114;13.788;2023-07-24T19:25:34;98003.00;;;23.78;63.97
19672;BME280;9983;51.114;13.788;2023-07-24T19:30:34;98015.81;;;23.64;65.49
19672;BME280;9983;51.114;13.788;2023-07-24T19:35:35;98023.53;;;23.14;67.93
19672;BME280;9983;51.114;13.788;2023-07-24T19:40:35;98052.09;;;22.40;73.57
19672;BME280;9983;51.114;13.788;2023-07-24T19:45:38;98039.41;;;22.25;77.58
19672;BME280;9983;51.114;13.788;2023-07-24T19:50:45;98057.16;;;22.23;78.98
19672;BME280;9983;51.114;13.788;2023-07-24T19:55:46;98049.50;;;22.25;79.56
19672;BME280;9983;51.114;13.788;2023-07-24T20:00:49;98061.41;;;21.95;81.58
19672;BME280;9983;51.114;13.788;2023-07-24T20:06:00;98066.56;;;22.07;82.67
19672;BME280;9983;51.114;13.788;2023-07-24T20:11:02;98070.97;;;21.98;83.29
19672;BME280;9983;51.114;13.788;2023-07-24T20:16:05;98063.34;;;22.00;84.33
19672;BME280;9983;51.114;13.788;2023-07-24T20:21:05;98048.03;;;21.93;84.55
19672;BME280;9983;51.114;13.788;2023-07-24T20:26:06;98064.03;;;21.66;86.20
19672;BME280;9983;51.114;13.788;2023-07-24T20:31:06;98062.84;;;21.82;86.87
19672;BME280;9983;51.114;13.788;2023-07-24T20:36:07;98063.72;;;22.22;84.12
19672;BME280;9983;51.114;13.788;2023-07-24T20:41:08;98077.22;;;22.42;83.06
19672;BME280;9983;51.114;13.788;2023-07-24T20:46:13;98095.94;;;22.20;84.24
19672;BME280;9983;51.114;13.788;2023-07-24T20:51:18;98127.16;;;22.04;84.94
19672;BME280;9983;51.114;13.788;2023-07-24T20:56:18;98136.81;;;21.71;86.84
19672;BME280;9983;51.114;13.788;2023-07-24T21:01:21;98135.97;;;21.80;85.00
19672;BME280;9983;51.114;13.788;2023-07-24T21:06:23;98123.06;;;21.32;86.09
19672;BME280;9983;51.114;13.788;2023-07-24T21:11:23;98141.63;;;21.25;88.99
19672;BME280;9983;51.114;13.788;2023-07-24T21:16:23;98143.81;;;20.47;100.00
19672;BME280;9983;51.114;13.788;2023-07-24T21:21:23;98153.59;;;21.18;98.93
19672;BME280;9983;51.114;13.788;2023-07-24T21:26:24;98153.03;;;21.27;100.00
19672;BME280;9983;51.114;13.788;2023-07-24T21:31:24;98131.81;;;21.03;100.00
19672;BME280;9983;51.114;13.788;2023-07-24T21:36:24;98126.63;;;20.97;100.00
19672;BME280;9983;51.114;13.788;2023-07-24T21:41:24;98124.16;;;21.15;100.00
19672;BME280;9983;51.114;13.788;2023-07-24T21:46:25;98125.00;;;20.86;100.00
19672;BME280;9983;51.114;13.788;2023-07-24T21:51:25;98129.59;;;21.10;100.00
19672;BME280;9983;51.114;13.788;2023-07-24T21:56:25;98124.19;;;20.44;100.00
19672;BME280;9983;51.114;13.788;2023-07-24T22:01:26;98119.84;;;20.38;100.00
19672;BME280;9983;51.114;13.788;2023-07-24T22:06:26;98131.03;;;20.62;100.00
19672;BME280;9983;51.114;13.788;2023-07-24T22:11:26;98133.47;;;20.64;100.00
19672;BME280;9983;51.114;13.788;2023-07-24T22:16:27;98125.84;;;20.86;100.00
19672;BME280;9983;51.114;13.788;2023-07-24T22:21:28;98130.75;;;20.89;100.00
19672;BME280;9983;51.114;13.788;2023-07-24T22:26:29;98125.84;;;20.86;100.00
19672;BME280;9983;51.114;13.788;2023-07-24T22:31:30;98124.22;;;20.75;100.00
19672;BME280;9983;51.114;13.788;2023-07-24T22:36:30;98137.81;;;20.80;100.00
19672;BME280;9983;51.114;13.788;2023-07-24T22:41:30;98127.22;;;20.83;100.00
19672;BME280;9983;51.114;13.788;2023-07-24T22:46:31;98124.75;;;20.87;100.00
19672;BME280;9983;51.114;13.788;2023-07-24T22:51:31;98130.22;;;20.41;100.00
19672;BME280;9983;51.114;13.788;2023-07-24T22:56:32;98125.75;;;20.10;100.00
19672;BME280;9983;51.114;13.788;2023-07-24T23:01:32;98139.47;;;20.40;100.00
19672;BME280;9983;51.114;13.788;2023-07-24T23:06:32;98146.34;;;19.81;100.00
19672;BME280;9983;51.114;13.788;2023-07-24T23:11:32;98145.56;;;19.33;100.00
19672;BME280;9983;51.114;13.788;2023-07-24T23:16:33;98144.19;;;19.88;100.00
19672;BME280;9983;51.114;13.788;2023-07-24T23:21:33;98155.47;;;19.49;100.00
19672;BME280;9983;51.114;13.788;2023-07-24T23:26:34;98150.97;;;19.80;100.00
19672;BME280;9983;51.114;13.788;2023-07-24T23:31:34;98148.00;;;19.92;100.00
19672;BME280;9983;51.114;13.788;2023-07-24T23:36:34;98162.72;;;19.91;100.00
19672;BME280;9983;51.114;13.788;2023-07-24T23:41:35;98166.56;;;20.00;100.00
19672;BME280;9983;51.114;13.788;2023-07-24T23:46:35;98166.03;;;20.13;100.00
19672;BME280;9983;51.114;13.788;2023-07-24T23:51:35;98169.06;;;20.32;100.00
19672;BME280;9983;51.114;13.788;2023-07-24T23:56:36;98166.16;;;19.66;100.00
